Latest Weather Observations for Mount Boyce

IDN60801

Issued at 10:03 pm EST Tuesday 4 August 2020 (issued every 10 minutes, with the page automatically refreshed every 10 minutes)

About weather observations | Map of weather stations | Latest weather observations for NSW | Other Formats
Station Details ID: 063292 Name: MOUNT BOYCE AWS Lat: -33.62 Lon: 150.27 Height: 1080.0 m
Data from the previous 72 hours. | See also: Recent months at Mount Boyce
Date/Time
EST
Temp
°C
App
Temp
°C
Dew
Point
°C
Rel
Hum
%
Delta-T
°C
Wind Press
QNH
hPa
Press
MSL
hPa
Rain since
9am
mm
Dir  Spd
km/h
Gust
km/h
Spd
kts
Gust
kts
04/10:00pm 0.7 -6.5 -4.9 66 2.0 WSW 24 35 13 19 - - 0.0
04/09:30pm 1.1 -6.1 -4.9 64 2.1 WSW 24 37 13 20 - - 0.0
04/09:00pm 1.9 -5.5 -3.6 67 2.1 WSW 26 43 14 23 - - 0.0
04/08:30pm 2.5 -5.1 -1.8 73 1.6 WSW 28 46 15 25 - - 0.0
04/08:00pm 3.1 -4.6 0.2 81 1.2 WSW 30 50 16 27 - - 0.0
04/07:30pm 3.6 -4.9 0.8 82 1.2 WSW 35 57 19 31 - - 0.0
04/07:00pm 4.1 -4.4 1.1 81 1.3 WSW 35 56 19 30 - - 0.0
04/06:58pm 4.2 -4.3 1.2 81 1.3 WSW 35 61 19 33 - - 0.0
04/06:36pm 4.5 -3.9 1.5 81 1.3 W 35 54 19 29 - - 0.0
04/06:34pm 4.6 -4.2 1.6 81 1.3 W 37 52 20 28 - - 0.0
04/06:30pm 4.7 -4.1 1.6 80 1.3 W 37 52 20 28 - - 0.0
04/06:01pm 5.2 -2.8 1.9 79 1.4 W 33 54 18 29 - - 0.0
04/06:00pm 5.2 -2.8 1.9 79 1.4 W 33 50 18 27 - - 0.0
04/05:30pm 5.6 -2.7 1.9 77 1.6 W 35 56 19 30 - - 0.0
04/05:00pm 6.8 -3.1 1.9 71 2.1 WSW 43 61 23 33 - - 0.0
04/04:30pm 8.2 -0.5 2.0 65 2.7 W 37 67 20 36 - - 0.0
04/04:00pm 8.9 0.1 1.6 60 3.2 W 37 61 20 33 - - 0.0
04/03:30pm 9.4 0.2 1.1 56 3.6 WSW 39 63 21 34 - - 0.0
04/03:00pm 9.9 0.7 1.3 55 3.8 WSW 39 65 21 35 - - 0.0
04/02:30pm 11.0 2.1 1.0 50 4.4 WSW 37 56 20 30 - - 0.0
04/02:00pm 10.8 0.7 0.2 48 4.6 WSW 43 72 23 39 - - 0.0
04/01:30pm 10.5 0.7 0.0 48 4.5 WSW 41 67 22 36 - - 0.0
04/01:00pm 10.9 2.3 2.5 56 3.9 WSW 37 59 20 32 - - 0.0
04/12:30pm 10.1 1.0 2.0 57 3.6 WSW 39 72 21 39 - - 0.0
04/12:21pm 10.0 2.0 1.6 56 3.7 WSW 33 72 18 39 - - 0.0
04/12:01pm 9.9 1.9 1.8 57 3.6 W 33 52 18 28 - - 0.0
04/12:00pm 10.0 1.6 1.4 55 3.8 W 35 52 19 28 - - 0.0
04/11:30am 10.0 2.0 1.4 55 3.8 W 33 63 18 34 - - 0.0
04/11:00am 9.5 1.4 0.9 55 3.8 W 33 54 18 29 - - 0.0
04/10:30am 8.9 -0.4 0.4 55 3.7 W 39 57 21 31 - - 0.0
04/10:00am 8.3 -0.3 0.3 57 3.4 W 35 61 19 33 - - 0.0
04/09:36am 7.6 -0.4 0.1 59 3.2 W 32 59 17 32 - - 0.0
04/09:30am 7.3 -0.7 0.5 62 2.9 W 32 44 17 24 - - 0.0
04/09:06am 6.6 -1.4 0.1 63 2.7 WSW 32 50 17 27 - - 0.0
04/09:00am 6.4 -1.9 -0.1 63 2.7 W 33 48 18 26 - - 0.0
04/08:36am 5.8 -1.5 -0.3 65 2.5 WSW 28 46 15 25 - - 0.0
04/08:30am 5.5 -1.5 -0.3 66 2.4 WSW 26 41 14 22 - - 0.0
04/08:00am 4.6 -1.7 -1.0 67 2.2 WSW 22 32 12 17 - - 0.0
04/07:30am 4.9 -2.2 -1.5 63 2.5 W 26 43 14 23 - - 0.0
04/07:04am 5.1 -2.8 -1.6 62 2.6 W 30 59 16 32 - - 0.0
04/07:00am 4.6 -2.9 -1.4 65 2.4 W 28 41 15 22 - - 0.0
04/06:30am 4.5 -3.4 -1.5 65 2.4 W 30 43 16 23 - - 0.0
04/06:00am 4.3 -3.6 -1.9 64 2.4 W 30 43 16 23 - - 0.0
04/05:30am 3.7 -3.4 -1.6 68 2.1 WSW 26 37 14 20 - - 0.0
04/05:00am 3.4 -2.6 -1.2 72 1.8 WSW 20 32 11 17 - - 0.0
04/04:30am 3.4 -2.2 -0.2 77 1.4 WSW 19 26 10 14 - - 0.0
04/04:00am 4.1 -1.7 0.1 75 1.6 WSW 20 30 11 16 - - 0.0
04/03:30am 4.0 -1.5 0.3 77 1.5 WSW 19 24 10 13 - - 0.0
04/03:00am 4.5 -0.6 0.5 75 1.6 W 17 26 9 14 - - 0.0
04/02:30am 4.8 -0.9 0.8 75 1.7 W 20 28 11 15 - - 0.0
04/02:00am 5.1 -0.5 1.0 75 1.7 W 20 30 11 16 - - 0.0
04/01:30am 5.3 -0.3 1.1 74 1.8 W 20 28 11 15 - - 0.0
04/01:00am 5.7 -0.3 0.9 71 2.0 W 22 32 12 17 - - 0.0
04/12:30am 5.9 -0.2 0.5 68 2.3 W 22 30 12 16 - - 0.0
04/12:00am 6.0 0.0 0.8 69 2.2 W 22 32 12 17 - - 0.0
 
Date/Time
EST
Temp
°C
App
Temp
°C
Dew
Point
°C
Rel
Hum
%
Delta-T
°C
Wind Press
QNH
hPa
Press
MSL
hPa
Rain since
9am
mm
Dir  Spd
km/h
Gust
km/h
Spd
kts
Gust
kts
03/11:30pm 5.9 -0.1 0.9 70 2.1 W 22 32 12 17 - - 0.0
03/11:00pm 6.4 0.4 1.1 69 2.3 W 22 30 12 16 - - 0.0
03/10:30pm 6.5 0.7 -0.2 62 2.8 W 20 32 11 17 - - 0.0
03/10:00pm 6.9 0.9 -1.7 54 3.4 W 20 30 11 16 - - 0.0
03/09:30pm 7.1 0.3 -2.1 52 3.7 W 24 33 13 18 - - 0.0
03/09:00pm 7.2 1.1 -2.5 50 3.8 W 20 28 11 15 - - 0.0
03/08:30pm 7.3 1.4 -2.4 50 3.8 W 19 26 10 14 - - 0.0
03/08:00pm 7.5 2.0 -2.0 51 3.8 W 17 24 9 13 - - 0.0
03/07:30pm 7.8 2.5 -0.9 54 3.6 WSW 17 24 9 13 - - 0.0
03/07:00pm 8.1 2.6 0.3 58 3.3 W 19 28 10 15 - - 0.0
03/06:30pm 8.1 2.9 0.3 58 3.3 W 17 24 9 13 - - 0.0
03/06:00pm 8.9 3.7 0.4 55 3.7 W 17 26 9 14 - - 0.0
03/05:30pm 9.0 3.8 -0.1 53 3.9 W 17 24 9 13 - - 0.0
03/05:00pm 9.5 4.2 -0.9 48 4.4 W 17 26 9 14 - - 0.0
03/04:30pm 10.2 4.4 -1.2 45 4.8 W 19 26 10 14 - - 0.0
03/04:00pm 11.0 5.7 -0.8 44 5.0 W 17 24 9 13 - - 0.0
03/03:30pm 10.9 5.1 -1.5 42 5.2 W 19 26 10 14 - - 0.0
03/03:00pm 11.6 6.1 -2.2 38 5.7 WSW 17 28 9 15 - - 0.0
03/02:30pm 11.8 5.4 -4.8 31 6.5 W 20 30 11 16 - - 0.0
03/02:00pm 11.7 4.5 -5.7 29 6.7 W 24 35 13 19 - - 0.0
03/01:30pm 11.8 4.5 -6.1 28 6.8 W 24 35 13 19 - - 0.0
03/01:00pm 11.7 4.5 -5.7 29 6.7 W 24 37 13 20 - - 0.0
03/12:30pm 11.5 4.2 -6.3 28 6.7 W 24 35 13 19 - - 0.0
03/12:00pm 11.6 5.4 -3.3 35 6.0 W 20 30 11 16 - - 0.0
03/11:30am 10.7 5.0 -3.4 37 5.6 W 17 24 9 13 - - 0.0
03/11:00am 10.1 4.4 -3.6 38 5.4 W 17 22 9 12 - - 0.0
03/10:30am 9.4 3.5 -5.6 34 5.6 W 17 22 9 12 - - 0.0
03/10:00am 8.7 2.3 -7.0 32 5.7 W 19 24 10 13 - - 0.0
03/09:30am 8.1 1.6 -8.0 31 5.6 W 19 24 10 13 - - 0.0
03/09:00am 7.1 0.7 -7.3 35 5.0 W 19 24 10 13 - - 0.0
03/08:30am 6.5 0.5 -6.8 38 4.7 W 17 20 9 11 - - 0.0
03/08:00am 6.1 0.1 -7.1 38 4.6 W 17 22 9 12 - - 0.0
03/07:30am 5.6 0.0 -6.3 42 4.2 W 15 22 8 12 - - 0.0
03/07:00am 5.3 0.1 -5.9 44 4.0 W 13 17 7 9 - - 0.0
03/06:30am 5.5 0.0 -5.8 44 4.0 W 15 19 8 10 - - 0.0
03/06:00am 5.0 0.0 -4.5 50 3.5 W 13 17 7 9 - - 0.0
03/05:30am 5.7 0.6 -5.3 45 4.0 W 13 17 7 9 - - 0.0
03/05:00am 5.9 0.8 -5.4 44 4.1 W 13 19 7 10 - - 0.0
03/04:30am 5.9 0.5 -4.8 46 3.9 WSW 15 19 8 10 - - 0.0
03/04:00am 5.2 0.2 -4.6 49 3.6 W 13 17 7 9 - - 0.0
03/03:30am 6.1 1.4 -4.9 45 4.0 W 11 15 6 8 - - 0.0
03/03:00am 5.8 1.7 -3.0 53 3.4 W 9 11 5 6 - - 0.0
03/02:30am 6.1 1.6 -3.5 50 3.6 W 11 13 6 7 - - 0.0
03/02:00am 6.6 2.4 -3.9 47 4.0 W 9 13 5 7 - - 0.0
03/01:30am 5.1 1.0 -3.2 55 3.1 WNW 9 11 5 6 - - 0.0
03/01:00am 5.2 1.1 -2.8 56 3.1 WNW 9 13 5 7 - - 0.0
03/12:30am 5.8 2.1 -2.5 55 3.2 WNW 7 13 4 7 - - 0.0
03/12:00am 6.3 2.4 -1.8 56 3.2 W 9 11 5 6 - - 0.0
 
Date/Time
EST
Temp
°C
App
Temp
°C
Dew
Point
°C
Rel
Hum
%
Delta-T
°C
Wind Press
QNH
hPa
Press
MSL
hPa
Rain since
9am
mm
Dir  Spd
km/h
Gust
km/h
Spd
kts
Gust
kts
02/11:30pm 6.7 2.4 -1.7 55 3.4 W 11 13 6 7 - - 0.0
02/11:00pm 7.2 3.3 -1.7 53 3.6 W 9 11 5 6 - - 0.0
02/10:30pm 6.9 3.0 -1.5 55 3.4 W 9 11 5 6 - - 0.0
02/10:00pm 7.4 3.1 -1.5 53 3.6 WSW 11 13 6 7 - - 0.0
02/09:30pm 7.8 3.9 -1.4 52 3.7 W 9 11 5 6 - - 0.0
02/09:00pm 7.6 3.3 -1.9 51 3.8 W 11 13 6 7 - - 0.0
02/08:30pm 7.4 3.1 -1.8 52 3.7 W 11 13 6 7 - - 0.0
02/08:00pm 7.5 3.5 -2.0 51 3.8 W 9 13 5 7 - - 0.0
02/07:30pm 7.3 4.2 -2.7 49 3.9 WNW 4 9 2 5 - - 0.0
02/07:00pm 8.5 5.8 -2.1 47 4.3 WNW 2 6 1 3 - - 0.0
02/06:30pm 8.1 5.1 -2.0 49 4.1 WNW 4 9 2 5 - - 0.0
02/06:00pm 8.7 5.1 -2.3 46 4.4 WNW 7 13 4 7 - - 0.0
02/05:30pm 9.3 5.2 -3.3 41 5.0 NW 9 13 5 7 - - 0.0
02/05:00pm 10.6 7.8 -3.1 38 5.5 NW 2 9 1 5 - - 0.0
02/04:30pm 12.2 8.8 -1.7 38 5.9 WNW 6 11 3 6 - - 0.0
02/04:00pm 14.0 10.0 -2.0 33 6.8 W 9 17 5 9 - - 0.0
02/03:30pm 14.7 10.3 -2.7 30 7.4 W 11 17 6 9 - - 0.0
02/03:00pm 15.1 11.2 -1.5 32 7.2 W 9 15 5 8 - - 0.0
02/02:30pm 15.1 11.4 -3.2 28 7.7 WNW 7 15 4 8 - - 0.0
02/02:00pm 15.2 11.1 -3.2 28 7.7 W 9 13 5 7 - - 0.0
02/01:30pm 14.5 10.3 -3.8 28 7.6 W 9 15 5 8 - - 0.0
02/01:00pm 13.5 9.2 -5.1 27 7.4 W 9 13 5 7 - - 0.0
02/12:30pm 13.5 9.2 -5.1 27 7.4 W 9 11 5 6 - - 0.0
02/12:00pm 12.9 8.9 -6.1 26 7.3 WNW 7 9 4 5 - - 0.0
02/11:30am 12.5 8.1 -5.5 28 7.0 WNW 9 11 5 6 - - 0.0
02/11:00am 11.6 7.1 -7.2 26 7.0 W 9 11 5 6 - - 0.0
02/10:30am 10.7 6.5 -8.0 26 6.7 W 7 9 4 5 - - 0.0
02/10:00am 9.5 5.3 -8.1 28 6.2 W 7 9 4 5 - - 0.0
02/09:30am 9.3 5.0 -9.2 26 6.4 W 7 9 4 5 - - 0.0
02/09:00am 8.2 3.8 -10.1 26 6.1 W 7 9 4 5 - - 0.2
02/08:30am 7.2 2.8 -10.1 28 5.7 W 7 9 4 5 - - 0.2
02/08:00am 5.6 0.9 -9.0 34 4.8 WNW 9 11 5 6 - - 0.2
02/07:30am 4.8 0.7 -9.3 35 4.6 W 6 7 3 4 - - 0.2
02/07:00am 4.5 1.2 -8.2 39 4.2 W 2 7 1 4 - - 0.2
02/06:30am 4.5 0.3 -7.3 42 4.0 W 7 11 4 6 - - 0.2
02/06:00am 4.7 -0.1 -6.5 44 3.9 W 11 11 6 6 - - 0.2
02/05:30am 3.9 -1.2 -5.6 50 3.3 W 13 13 7 7 - - 0.2
02/05:00am 3.9 -1.2 -5.0 52 3.2 W 13 15 7 8 - - 0.2
02/04:30am 3.6 -1.8 -4.8 54 3.0 W 15 17 8 9 - - 0.2
02/04:00am 4.5 -0.2 -5.0 50 3.4 W 11 13 6 7 - - 0.2
02/03:30am 4.4 -0.6 -4.1 54 3.1 WNW 13 15 7 8 - - 0.2
02/03:00am 4.1 -0.4 -3.0 60 2.7 W 11 13 6 7 - - 0.2
02/02:30am 4.5 0.5 -1.9 63 2.5 W 9 13 5 7 - - 0.2
02/02:00am 4.8 0.9 -1.2 65 2.4 W 9 11 5 6 - - 0.2
02/01:30am 4.8 0.4 -2.7 58 2.9 WNW 11 13 6 7 - - 0.2
02/01:00am 4.2 0.3 0.9 79 1.4 W 11 13 6 7 - - 0.2
02/12:30am 4.7 0.7 0.7 75 1.7 W 11 13 6 7 - - 0.2
02/12:00am 4.8 1.4 1.8 81 1.3 W 9 13 5 7 - - 0.2
 
Date/Time
EST
Temp
°C
App
Temp
°C
Dew
Point
°C
Rel
Hum
%
Delta-T
°C
Wind Press
QNH
hPa
Press
MSL
hPa
Rain since
9am
mm
Dir  Spd
km/h
Gust
km/h
Spd
kts
Gust
kts
01/11:30pm 4.5 0.5 2.8 89 0.7 W 13 15 7 8 - - 0.2
01/11:00pm 4.7 0.8 3.2 90 0.7 W 13 17 7 9 - - 0.2
01/10:30pm 4.8 0.9 3.3 90 0.7 W 13 17 7 9 - - 0.2

Other formats

Comma delimited format used in spreadsheet applications
http://www.bom.gov.au/fwo/IDN60801/IDN60801.94743.axf

JavaScript Object Notation format (JSON) in row-major order
http://www.bom.gov.au/fwo/IDN60801/IDN60801.94743.json

Data quality

Most of these data are generated automatically and are frequently updated. Quality checks on data are not normally performed. It is possible for incorrect values to appear. Refer to information at About Latest Weather Observations and please check the disclaimer before using these data.